createdAt,value
2022-11-10T00:00:16.091Z,95323.16
2022-11-10T00:01:12.777Z,95312.63
2022-11-10T00:02:09.501Z,95299.84
2022-11-10T00:03:10.461Z,95265.75
2022-11-10T00:04:07.142Z,95179.97
2022-11-10T00:05:04.046Z,95400.81
2022-11-10T00:06:03.746Z,95356.34
2022-11-10T00:07:00.459Z,95397.25
2022-11-10T00:07:57.546Z,95404.38
2022-11-10T00:08:54.269Z,95396.00
2022-11-10T00:09:52.682Z,95384.16
2022-11-10T00:10:59.786Z,95278.44
2022-11-10T00:11:56.491Z,95398.75
2022-11-10T00:12:53.595Z,95398.00
2022-11-10T00:14:08.704Z,95374.81
2022-11-10T00:15:24.456Z,95289.75
2022-11-10T00:16:39.733Z,95288.78
2022-11-10T00:17:37.276Z,95352.47
2022-11-10T00:18:33.994Z,95394.78
2022-11-10T00:19:35.236Z,95306.88
2022-11-10T00:20:32.572Z,95347.94
2022-11-10T00:21:48.040Z,95367.75
2022-11-10T00:22:44.880Z,95331.72
2022-11-10T00:23:41.917Z,95400.72
2022-11-10T00:24:41.123Z,95384.88
2022-11-10T00:25:37.815Z,95379.44
2022-11-10T00:26:34.509Z,95380.03
2022-11-10T00:27:33.421Z,95378.81
2022-11-10T00:28:32.154Z,95337.97
2022-11-10T00:29:28.835Z,95389.94
2022-11-10T00:30:26.439Z,95169.47
2022-11-10T00:31:23.130Z,95387.69
2022-11-10T00:32:20.116Z,95289.03
2022-11-10T00:33:16.791Z,95373.28
2022-11-10T00:34:16.545Z,95192.56
2022-11-10T00:35:13.249Z,95380.53
2022-11-10T00:36:10.392Z,95428.03
2022-11-10T00:37:07.166Z,95319.00
2022-11-10T00:38:03.845Z,95390.16
2022-11-10T00:39:00.635Z,95353.59
2022-11-10T00:39:57.339Z,95293.53
2022-11-10T00:40:54.053Z,95303.22
2022-11-10T00:41:50.728Z,95368.59
2022-11-10T00:42:47.407Z,95345.75
2022-11-10T00:43:44.090Z,95379.03
2022-11-10T00:44:41.020Z,95361.78
2022-11-10T00:45:41.926Z,95390.34
2022-11-10T00:46:38.607Z,95365.13
2022-11-10T00:47:35.334Z,95376.25
2022-11-10T00:48:32.058Z,95414.63
2022-11-10T00:49:28.834Z,95381.16
2022-11-10T00:50:25.530Z,95361.31
2022-11-10T00:51:27.906Z,95366.44
2022-11-10T00:52:24.635Z,95271.34
2022-11-10T00:53:21.659Z,95375.22
2022-11-10T00:54:18.725Z,95241.56
2022-11-10T00:55:15.457Z,95362.16
2022-11-10T00:56:12.149Z,95351.31
2022-11-10T00:57:08.874Z,95379.38
2022-11-10T00:58:05.548Z,95373.97
2022-11-10T00:59:02.234Z,95369.66
2022-11-10T00:59:58.926Z,95379.19
2022-11-10T01:01:04.054Z,95361.44
2022-11-10T01:02:00.781Z,95368.25
2022-11-10T01:02:57.696Z,95326.09
2022-11-10T01:03:55.544Z,95343.06
2022-11-10T01:04:52.242Z,95360.41
2022-11-10T01:05:48.980Z,95370.94
2022-11-10T01:06:48.034Z,95339.44
2022-11-10T01:07:44.804Z,95341.19
2022-11-10T01:08:42.950Z,95360.16
2022-11-10T01:09:39.686Z,95389.88
2022-11-10T01:10:36.620Z,95367.88
2022-11-10T01:11:33.311Z,95373.78
2022-11-10T01:12:30.810Z,95342.34
2022-11-10T01:13:27.511Z,95371.16
2022-11-10T01:14:24.230Z,95367.06
2022-11-10T01:15:27.049Z,95344.06
2022-11-10T01:16:28.190Z,95339.44
2022-11-10T01:17:24.858Z,95147.50
2022-11-10T01:18:21.518Z,95376.78
2022-11-10T01:19:18.222Z,95375.59
2022-11-10T01:20:15.018Z,95181.22
2022-11-10T01:21:11.715Z,95297.91
2022-11-10T01:22:08.400Z,95376.16
2022-11-10T01:23:05.145Z,95363.59
2022-11-10T01:24:02.598Z,95363.97
2022-11-10T01:24:59.310Z,95360.47
2022-11-10T01:26:02.317Z,95357.00
2022-11-10T01:26:59.053Z,95324.47
2022-11-10T01:27:55.740Z,95340.94
2022-11-10T01:28:52.457Z,95360.84
2022-11-10T01:29:49.247Z,95357.06
2022-11-10T01:30:45.922Z,95354.66
2022-11-10T01:31:42.679Z,95261.13
2022-11-10T01:32:39.388Z,95357.13
2022-11-10T01:33:36.734Z,95362.28
2022-11-10T01:34:33.466Z,95374.03
2022-11-10T01:35:30.147Z,95248.28
2022-11-10T01:36:26.960Z,95361.75
2022-11-10T01:37:24.063Z,95379.78
2022-11-10T01:38:22.553Z,95330.41
2022-11-10T01:39:19.357Z,95301.03
2022-11-10T01:40:16.133Z,95352.63
2022-11-10T01:41:14.854Z,95372.91
2022-11-10T01:42:12.803Z,95360.19
2022-11-10T01:43:11.834Z,95356.63
2022-11-10T01:44:26.871Z,95296.41
2022-11-10T01:45:23.505Z,95340.09
2022-11-10T01:46:20.248Z,95342.09
2022-11-10T01:47:16.936Z,95195.69
2022-11-10T01:48:23.271Z,95275.41
2022-11-10T01:49:25.011Z,95306.22
2022-11-10T01:50:26.223Z,95353.06
2022-11-10T01:51:42.349Z,95343.38
2022-11-10T01:52:42.145Z,95352.56
2022-11-10T01:53:45.056Z,95290.53
2022-11-10T01:54:47.459Z,95343.19
2022-11-10T01:55:48.397Z,95267.06
2022-11-10T01:56:50.608Z,95354.41
2022-11-10T01:57:47.557Z,95351.38
2022-11-10T01:58:53.576Z,95356.47
2022-11-10T01:59:50.700Z,95286.56
2022-11-10T02:00:47.580Z,95361.56
2022-11-10T02:01:48.877Z,95359.66
2022-11-10T02:02:59.063Z,95293.31
2022-11-10T02:04:17.251Z,95335.97
2022-11-10T02:05:14.003Z,95357.44
2022-11-10T02:06:11.924Z,95355.78
2022-11-10T02:07:11.115Z,95338.84
2022-11-10T02:08:08.620Z,95368.84
2022-11-10T02:09:05.316Z,95359.19
2022-11-10T02:10:03.349Z,95353.25
2022-11-10T02:11:00.030Z,95181.13
2022-11-10T02:11:57.933Z,95391.41
2022-11-10T02:12:54.917Z,95328.03
2022-11-10T02:13:53.261Z,95298.16
2022-11-10T02:14:49.987Z,95361.91
2022-11-10T02:15:46.867Z,95332.34
2022-11-10T02:16:43.685Z,95330.38
2022-11-10T02:17:42.197Z,95149.78
2022-11-10T02:18:39.039Z,95354.00
2022-11-10T02:19:42.224Z,95308.84
2022-11-10T02:20:39.024Z,95377.41
2022-11-10T02:21:35.709Z,95371.16
2022-11-10T02:22:32.841Z,95353.31
2022-11-10T02:23:29.538Z,95328.56
2022-11-10T02:24:26.234Z,95404.50
2022-11-10T02:25:25.491Z,95343.22
2022-11-10T02:26:27.527Z,95348.56
2022-11-10T02:27:24.434Z,95181.84
2022-11-10T02:28:21.148Z,95358.06
2022-11-10T02:29:17.826Z,95366.31
2022-11-10T02:30:15.585Z,95302.66
2022-11-10T02:31:12.936Z,95388.09
2022-11-10T02:32:09.661Z,95269.25
2022-11-10T02:33:06.391Z,95373.56
2022-11-10T02:34:03.141Z,95357.66
2022-11-10T02:34:59.826Z,95283.06
2022-11-10T02:35:56.810Z,95322.84
2022-11-10T02:36:53.515Z,95360.16
2022-11-10T02:37:50.202Z,95388.72
2022-11-10T02:38:46.901Z,95366.47
2022-11-10T02:39:43.655Z,95306.97
2022-11-10T02:40:40.638Z,95366.22
2022-11-10T02:41:37.362Z,95378.59
2022-11-10T02:42:34.102Z,95374.09
2022-11-10T02:43:31.057Z,95403.50
2022-11-10T02:44:28.277Z,95385.75
2022-11-10T02:45:24.962Z,95286.03
2022-11-10T02:46:21.691Z,95371.53
2022-11-10T02:47:18.605Z,95336.72
2022-11-10T02:48:16.550Z,95354.06
2022-11-10T02:49:13.314Z,95382.72
2022-11-10T02:50:10.293Z,95372.66
2022-11-10T02:51:07.142Z,95321.00
2022-11-10T02:52:03.996Z,95369.00
2022-11-10T02:53:00.679Z,95332.56
2022-11-10T02:53:57.406Z,95363.19
2022-11-10T02:54:54.114Z,95322.59
2022-11-10T02:55:50.827Z,95261.81
2022-11-10T02:56:48.105Z,95330.81
2022-11-10T02:57:44.856Z,95335.59
2022-11-10T02:58:41.650Z,95357.63
2022-11-10T02:59:38.400Z,95380.75
2022-11-10T03:00:35.102Z,95399.88
2022-11-10T03:01:31.861Z,95319.97
2022-11-10T03:02:32.245Z,95380.72
2022-11-10T03:03:29.177Z,95385.16
2022-11-10T03:04:25.877Z,95318.53
2022-11-10T03:05:22.571Z,95336.56
2022-11-10T03:06:19.329Z,95351.16
2022-11-10T03:07:16.058Z,95301.91
2022-11-10T03:08:12.798Z,95380.78
2022-11-10T03:09:09.566Z,95272.03
2022-11-10T03:10:07.415Z,95381.03
2022-11-10T03:11:04.372Z,95398.56
2022-11-10T03:12:01.061Z,95380.88
2022-11-10T03:13:00.799Z,95379.09
2022-11-10T03:14:02.288Z,95375.97
2022-11-10T03:14:59.336Z,95314.25
2022-11-10T03:15:56.023Z,95309.16
2022-11-10T03:16:53.720Z,95381.06
2022-11-10T03:17:50.964Z,95386.56
2022-11-10T03:18:47.650Z,95399.16
2022-11-10T03:19:44.429Z,95180.19
2022-11-10T03:20:41.231Z,95378.22
2022-11-10T03:21:37.937Z,95370.66
2022-11-10T03:22:35.163Z,95183.66
2022-11-10T03:23:33.470Z,95310.38
2022-11-10T03:24:30.144Z,95370.63
2022-11-10T03:25:26.875Z,95397.81
2022-11-10T03:26:23.564Z,95384.50
2022-11-10T03:27:20.250Z,95378.59
2022-11-10T03:28:16.949Z,95352.53
2022-11-10T03:29:13.657Z,95386.25
2022-11-10T03:30:10.841Z,95191.66
2022-11-10T03:31:07.524Z,95406.63
2022-11-10T03:32:04.244Z,95325.50
2022-11-10T03:33:01.121Z,95367.22
2022-11-10T03:33:57.825Z,95408.41
2022-11-10T03:34:54.537Z,95392.34
2022-11-10T03:35:51.248Z,95392.91
2022-11-10T03:36:47.937Z,95387.50
2022-11-10T03:37:44.869Z,95396.59
2022-11-10T03:38:41.639Z,95314.13
2022-11-10T03:39:39.615Z,95391.78
2022-11-10T03:40:50.799Z,95188.13
2022-11-10T03:41:53.057Z,95401.19
2022-11-10T03:42:49.843Z,95291.88
2022-11-10T03:43:46.750Z,95199.00
2022-11-10T03:44:43.451Z,95221.97
2022-11-10T03:45:40.153Z,95406.44
2022-11-10T03:46:36.849Z,95384.28
2022-11-10T03:47:33.525Z,95365.44
2022-11-10T03:48:30.271Z,95383.28
2022-11-10T03:49:27.003Z,95398.28
2022-11-10T03:50:23.697Z,95389.72
2022-11-10T03:51:20.834Z,95390.09
2022-11-10T03:52:18.164Z,95342.66
2022-11-10T03:53:15.072Z,95397.88
2022-11-10T03:54:11.872Z,95337.78
2022-11-10T03:55:14.943Z,95378.34
2022-11-10T03:56:12.377Z,95387.41
2022-11-10T03:57:09.092Z,95408.94
2022-11-10T03:58:05.804Z,95402.75
2022-11-10T03:59:02.595Z,95407.19
2022-11-10T03:59:59.330Z,95401.66
2022-11-10T04:00:56.337Z,95396.50
2022-11-10T04:01:53.042Z,95387.13
2022-11-10T04:02:49.746Z,95416.59
2022-11-10T04:03:51.233Z,95381.28
2022-11-10T04:05:06.762Z,95347.19
2022-11-10T04:06:22.393Z,95322.84
2022-11-10T04:07:37.945Z,95411.94
2022-11-10T04:08:53.335Z,95395.34
2022-11-10T04:09:50.034Z,95413.72
2022-11-10T04:10:47.076Z,95341.34
2022-11-10T04:12:02.156Z,95400.84
2022-11-10T04:13:17.500Z,95379.44
2022-11-10T04:14:33.993Z,95410.94
2022-11-10T04:15:42.304Z,95399.56
2022-11-10T04:16:38.989Z,95381.72
2022-11-10T04:17:35.674Z,95406.25
2022-11-10T04:18:32.426Z,95331.22
2022-11-10T04:19:29.908Z,95390.16
2022-11-10T04:20:26.579Z,95400.47
2022-11-10T04:21:23.259Z,95404.81
2022-11-10T04:22:39.943Z,95269.13
2022-11-10T04:23:36.639Z,95391.34
2022-11-10T04:24:33.326Z,95411.00
2022-11-10T04:25:30.138Z,95328.50
2022-11-10T04:26:29.417Z,95424.22
2022-11-10T04:27:26.126Z,95160.28
2022-11-10T04:28:22.847Z,95397.31
2022-11-10T04:29:20.432Z,95391.72
2022-11-10T04:30:17.301Z,95408.63
2022-11-10T04:31:15.353Z,95381.50
2022-11-10T04:32:12.043Z,95404.81
2022-11-10T04:33:08.808Z,95401.59
2022-11-10T04:34:10.127Z,95379.75
2022-11-10T04:35:07.114Z,95412.78
2022-11-10T04:36:04.843Z,95426.22
2022-11-10T04:37:01.516Z,95398.56
2022-11-10T04:37:58.199Z,95443.22
2022-11-10T04:38:55.830Z,95411.88
2022-11-10T04:39:52.530Z,95395.22
2022-11-10T04:40:49.214Z,95415.03
2022-11-10T04:41:45.967Z,95412.09
2022-11-10T04:42:42.654Z,95398.03
2022-11-10T04:43:39.454Z,95332.72
2022-11-10T04:44:36.102Z,95222.81
2022-11-10T04:45:33.805Z,95242.19
2022-11-10T04:46:36.822Z,95406.69
2022-11-10T04:47:33.497Z,95389.09
2022-11-10T04:48:31.709Z,95394.66
2022-11-10T04:49:28.394Z,95343.63
2022-11-10T04:50:25.116Z,95361.50
2022-11-10T04:51:24.962Z,95347.75
2022-11-10T04:52:21.733Z,95190.88
2022-11-10T04:53:19.556Z,95390.94
2022-11-10T04:54:16.563Z,95367.28
2022-11-10T04:55:13.276Z,95346.84
2022-11-10T04:56:17.825Z,95374.13
2022-11-10T04:57:14.676Z,95412.28
2022-11-10T04:58:13.166Z,95296.53
2022-11-10T04:59:09.884Z,95412.97
2022-11-10T05:00:07.576Z,95434.31
2022-11-10T05:01:04.310Z,95374.72
2022-11-10T05:02:01.050Z,95416.22
2022-11-10T05:02:59.978Z,95388.50
2022-11-10T05:03:56.734Z,95426.53
2022-11-10T05:04:53.410Z,95355.41
2022-11-10T05:05:50.318Z,95213.38
2022-11-10T05:06:47.053Z,95423.25
2022-11-10T05:07:47.101Z,95411.75
2022-11-10T05:08:44.404Z,95324.88
2022-11-10T05:09:41.088Z,95297.09
2022-11-10T05:10:38.544Z,95428.28
2022-11-10T05:11:35.394Z,95406.56
2022-11-10T05:12:32.142Z,95349.66
2022-11-10T05:13:29.002Z,95431.94
2022-11-10T05:14:25.709Z,95427.28
2022-11-10T05:15:23.214Z,95429.47
2022-11-10T05:16:19.920Z,95352.09
2022-11-10T05:17:16.610Z,95396.00
2022-11-10T05:18:13.327Z,95329.03
2022-11-10T05:19:10.050Z,95439.28
2022-11-10T05:20:07.479Z,95433.38
2022-11-10T05:21:04.459Z,95421.53
2022-11-10T05:22:01.303Z,95431.56
2022-11-10T05:23:16.218Z,95413.09
2022-11-10T05:24:12.874Z,95430.00
2022-11-10T05:25:09.554Z,95346.50
2022-11-10T05:26:15.459Z,95386.31
2022-11-10T05:27:12.168Z,95431.97
2022-11-10T05:28:11.879Z,95423.50
2022-11-10T05:29:08.609Z,95410.34
2022-11-10T05:30:05.864Z,95430.56
2022-11-10T05:31:03.424Z,95409.31
2022-11-10T05:32:00.415Z,95418.72
2022-11-10T05:32:57.198Z,95427.78
2022-11-10T05:33:53.904Z,95423.09
2022-11-10T05:34:50.774Z,95420.13
2022-11-10T05:35:49.964Z,95436.91
2022-11-10T05:36:46.802Z,95348.47
2022-11-10T05:37:43.494Z,95428.78
2022-11-10T05:38:43.522Z,95435.91
2022-11-10T05:39:40.487Z,95426.81
2022-11-10T05:40:37.219Z,95432.09
2022-11-10T05:41:33.915Z,95396.16
2022-11-10T05:42:30.637Z,95413.78
2022-11-10T05:43:27.395Z,95444.16
2022-11-10T05:44:24.131Z,95395.25
2022-11-10T05:45:23.790Z,95433.00
2022-11-10T05:46:20.464Z,95367.06
2022-11-10T05:47:17.157Z,95443.66
2022-11-10T05:48:13.851Z,95419.41
2022-11-10T05:49:10.530Z,95422.25
2022-11-10T05:50:08.731Z,95457.13
2022-11-10T05:51:06.830Z,95415.97
2022-11-10T05:52:03.908Z,95401.22
2022-11-10T05:53:00.650Z,95417.59
2022-11-10T05:53:57.345Z,95419.41
2022-11-10T05:54:55.520Z,95392.66
2022-11-10T05:55:52.505Z,95364.22
2022-11-10T05:56:49.174Z,95465.38
2022-11-10T05:57:47.756Z,95437.28
2022-11-10T05:58:44.469Z,95246.44
2022-11-10T05:59:41.173Z,95246.38
2022-11-10T06:00:37.969Z,95445.50
2022-11-10T06:01:34.657Z,95392.97
2022-11-10T06:02:31.350Z,95314.13
2022-11-10T06:03:28.305Z,95464.31
2022-11-10T06:04:25.128Z,95399.94
2022-11-10T06:05:24.572Z,95434.88
2022-11-10T06:06:23.589Z,95446.06
2022-11-10T06:07:20.376Z,95400.72
2022-11-10T06:08:17.914Z,95456.84
2022-11-10T06:09:14.697Z,95474.50
2022-11-10T06:10:11.389Z,95473.19
2022-11-10T06:11:08.074Z,95474.09
2022-11-10T06:12:04.953Z,95455.41
2022-11-10T06:13:02.440Z,95473.53
2022-11-10T06:14:00.905Z,95459.59
2022-11-10T06:14:58.269Z,95397.13
2022-11-10T06:15:54.969Z,95474.16
2022-11-10T06:16:51.660Z,95491.09
2022-11-10T06:17:48.540Z,95466.69
2022-11-10T06:18:45.238Z,95454.34
2022-11-10T06:19:41.982Z,95520.41
2022-11-10T06:20:38.726Z,95455.84
2022-11-10T06:21:35.409Z,95457.59
2022-11-10T06:22:32.113Z,95421.16
2022-11-10T06:23:30.107Z,95489.56
2022-11-10T06:24:26.816Z,95330.91
2022-11-10T06:25:23.493Z,95497.00
2022-11-10T06:26:20.260Z,95442.22
2022-11-10T06:27:16.979Z,95480.75
2022-11-10T06:28:15.007Z,95484.53
2022-11-10T06:29:11.757Z,95459.06
2022-11-10T06:30:09.395Z,95442.88
2022-11-10T06:31:06.080Z,95515.75
2022-11-10T06:32:02.812Z,95420.75
2022-11-10T06:32:59.595Z,95455.56
2022-11-10T06:33:56.383Z,95485.03
2022-11-10T06:34:57.834Z,95375.13
2022-11-10T06:35:56.954Z,95501.06
2022-11-10T06:36:53.670Z,95507.94
2022-11-10T06:38:11.772Z,95487.03
2022-11-10T06:39:09.598Z,95514.56
2022-11-10T06:40:08.249Z,95482.44
2022-11-10T06:41:05.068Z,95472.44
2022-11-10T06:42:01.775Z,95520.88
2022-11-10T06:42:59.184Z,95511.72
2022-11-10T06:43:56.190Z,95482.41
2022-11-10T06:44:52.897Z,95526.13
2022-11-10T06:45:49.737Z,95521.97
2022-11-10T06:46:46.410Z,95497.56
2022-11-10T06:47:43.180Z,95510.97
2022-11-10T06:48:40.300Z,95517.22
2022-11-10T06:49:37.018Z,95504.03
2022-11-10T06:50:34.322Z,95440.47
2022-11-10T06:51:31.064Z,95520.34
2022-11-10T06:52:27.816Z,95515.13
2022-11-10T06:53:27.180Z,95519.56
2022-11-10T06:54:24.056Z,95518.31
2022-11-10T06:55:20.765Z,95529.63
2022-11-10T06:56:17.463Z,95474.28
2022-11-10T06:57:14.158Z,95506.09
2022-11-10T06:58:11.166Z,95473.13
2022-11-10T06:59:07.861Z,95503.78
2022-11-10T07:00:05.545Z,95447.03
2022-11-10T07:01:02.352Z,95485.94
2022-11-10T07:01:59.336Z,95488.41
2022-11-10T07:03:04.138Z,95459.63
2022-11-10T07:04:18.740Z,95524.41
2022-11-10T07:05:16.777Z,95517.13
2022-11-10T07:06:13.478Z,95533.53
2022-11-10T07:07:11.732Z,95499.31
2022-11-10T07:08:15.904Z,95527.69
2022-11-10T07:09:12.583Z,95515.72
2022-11-10T07:10:09.429Z,95513.88
2022-11-10T07:11:06.131Z,95461.97
2022-11-10T07:12:02.885Z,95349.03
2022-11-10T07:13:01.316Z,95526.47
2022-11-10T07:13:58.002Z,95524.06
2022-11-10T07:14:54.666Z,95529.28
2022-11-10T07:15:52.366Z,95503.16
2022-11-10T07:16:49.066Z,95508.25
2022-11-10T07:17:45.784Z,95469.44
2022-11-10T07:18:42.620Z,95513.88
2022-11-10T07:19:39.291Z,95532.88
2022-11-10T07:20:36.114Z,95518.34
2022-11-10T07:21:32.818Z,95453.44
2022-11-10T07:22:29.551Z,95528.84
2022-11-10T07:23:26.176Z,95537.59
2022-11-10T07:24:22.893Z,95491.00
2022-11-10T07:25:19.610Z,95420.31
2022-11-10T07:26:16.342Z,95479.38
2022-11-10T07:27:13.062Z,95490.72
2022-11-10T07:28:11.017Z,95528.44
2022-11-10T07:29:07.756Z,95411.75
2022-11-10T07:30:06.043Z,95537.78
2022-11-10T07:31:03.255Z,95286.00
2022-11-10T07:31:59.988Z,95549.00
2022-11-10T07:33:14.426Z,95525.47
2022-11-10T07:34:11.251Z,95380.31
2022-11-10T07:35:08.330Z,95545.00
2022-11-10T07:36:05.626Z,95532.06
2022-11-10T07:37:02.354Z,95544.06
2022-11-10T07:38:03.340Z,95489.09
2022-11-10T07:39:00.435Z,95427.25
2022-11-10T07:39:57.092Z,95540.63
2022-11-10T07:40:54.544Z,95452.13
2022-11-10T07:41:52.670Z,95529.31
2022-11-10T07:42:49.820Z,95528.94
2022-11-10T07:43:46.527Z,95554.88
2022-11-10T07:44:43.237Z,95530.16
2022-11-10T07:45:40.121Z,95528.31
2022-11-10T07:46:36.895Z,95450.31
2022-11-10T07:47:33.615Z,95422.38
2022-11-10T07:48:30.333Z,95539.03
2022-11-10T07:49:26.989Z,95535.84
2022-11-10T07:50:23.721Z,95528.94
2022-11-10T07:51:20.429Z,95524.84
2022-11-10T07:52:17.151Z,95543.91
2022-11-10T07:53:22.630Z,95541.47
2022-11-10T07:54:19.598Z,95319.94
2022-11-10T07:55:16.349Z,95479.06
2022-11-10T07:56:14.187Z,95517.75
2022-11-10T07:57:10.896Z,95440.53
2022-11-10T07:58:08.456Z,95549.56
2022-11-10T07:59:05.166Z,95524.44
2022-11-10T08:00:02.238Z,95539.06
2022-11-10T08:00:58.937Z,95477.84
2022-11-10T08:01:55.656Z,95530.75
2022-11-10T08:02:52.495Z,95450.25
2022-11-10T08:03:49.204Z,95444.22
2022-11-10T08:04:45.922Z,95552.00
2022-11-10T08:05:43.385Z,95539.06
2022-11-10T08:06:40.343Z,95372.75
2022-11-10T08:07:37.302Z,95519.13
2022-11-10T08:08:34.103Z,95492.63
2022-11-10T08:09:30.822Z,95488.38
2022-11-10T08:10:28.972Z,95448.09
2022-11-10T08:11:25.724Z,95532.97
2022-11-10T08:12:22.409Z,95536.59
2022-11-10T08:13:19.261Z,95459.81
2022-11-10T08:14:16.042Z,95514.66
2022-11-10T08:15:12.732Z,95538.63
2022-11-10T08:16:09.791Z,95473.59
2022-11-10T08:17:06.593Z,95563.56
2022-11-10T08:18:08.033Z,95536.97
2022-11-10T08:19:04.975Z,95454.34
2022-11-10T08:20:01.756Z,95558.25
2022-11-10T08:21:02.045Z,95455.91
2022-11-10T08:21:58.736Z,95537.28
2022-11-10T08:23:05.046Z,95484.66
2022-11-10T08:24:01.754Z,95535.69
2022-11-10T08:24:58.461Z,95487.22
2022-11-10T08:25:59.732Z,95540.16
2022-11-10T08:26:56.510Z,95558.84
2022-11-10T08:27:58.481Z,95389.13
2022-11-10T08:28:55.343Z,95531.50
2022-11-10T08:29:52.044Z,95525.88
2022-11-10T08:30:49.380Z,95502.59
2022-11-10T08:31:46.057Z,95545.28
2022-11-10T08:32:42.744Z,95535.97
2022-11-10T08:33:39.505Z,95550.78
2022-11-10T08:34:36.218Z,95541.13
2022-11-10T08:35:36.859Z,95451.44
2022-11-10T08:36:33.589Z,95550.72
2022-11-10T08:37:30.489Z,95546.03
2022-11-10T08:38:27.201Z,95547.50
2022-11-10T08:39:38.085Z,95495.69
2022-11-10T08:40:35.325Z,95545.88
2022-11-10T08:41:32.058Z,95549.97
2022-11-10T08:42:28.766Z,95440.38
2022-11-10T08:43:25.752Z,95551.91
2022-11-10T08:44:22.999Z,95559.94
2022-11-10T08:45:19.729Z,95538.72
2022-11-10T08:46:16.547Z,95528.72
2022-11-10T08:47:13.332Z,95546.41
2022-11-10T08:48:17.269Z,95490.81
2022-11-10T08:49:13.973Z,95538.13
2022-11-10T08:50:11.085Z,95555.94
2022-11-10T08:51:07.866Z,95493.88
2022-11-10T08:52:04.606Z,95542.78
2022-11-10T08:53:06.469Z,95494.66
2022-11-10T08:54:03.184Z,95020.78
2022-11-10T08:54:59.969Z,95443.72
2022-11-10T08:56:00.140Z,95527.91
2022-11-10T08:56:58.749Z,95548.22
2022-11-10T08:57:59.964Z,95549.00
2022-11-10T08:58:56.750Z,95378.78
2022-11-10T08:59:53.465Z,95542.75
2022-11-10T09:00:51.296Z,95506.72
2022-11-10T09:01:48.014Z,95551.81
2022-11-10T09:02:44.797Z,95513.22
2022-11-10T09:03:41.618Z,95538.56
2022-11-10T09:04:38.396Z,95547.16
2022-11-10T09:05:36.301Z,95495.31
2022-11-10T09:06:33.098Z,95438.50
2022-11-10T09:07:31.398Z,95540.97
2022-11-10T09:08:28.251Z,95457.47
2022-11-10T09:09:26.569Z,95577.56
2022-11-10T09:10:23.332Z,95536.81
2022-11-10T09:11:20.052Z,95539.28
2022-11-10T09:12:16.785Z,95472.25
2022-11-10T09:13:15.913Z,95548.72
2022-11-10T09:14:12.649Z,95559.16
2022-11-10T09:15:11.340Z,95509.41
2022-11-10T09:16:08.478Z,95558.03
2022-11-10T09:17:05.171Z,95558.47
2022-11-10T09:18:04.428Z,95496.75
2022-11-10T09:19:01.144Z,95508.28
2022-11-10T09:19:57.865Z,95559.06
2022-11-10T09:20:54.677Z,95558.91
2022-11-10T09:21:51.430Z,95494.63
2022-11-10T09:22:48.146Z,95537.16
2022-11-10T09:23:44.815Z,95546.59
2022-11-10T09:24:41.592Z,95546.94
2022-11-10T09:25:38.771Z,95531.13
2022-11-10T09:26:35.473Z,95561.19
2022-11-10T09:27:36.257Z,95505.94
2022-11-10T09:28:33.460Z,95544.34
2022-11-10T09:29:30.195Z,95569.44
2022-11-10T09:30:26.980Z,95494.34
2022-11-10T09:31:23.720Z,95558.63
2022-11-10T09:32:20.405Z,95500.09
2022-11-10T09:33:17.895Z,95499.47
2022-11-10T09:34:14.663Z,95533.28
2022-11-10T09:35:11.362Z,95431.88
2022-11-10T09:36:08.259Z,95554.16
2022-11-10T09:37:04.997Z,95480.56
2022-11-10T09:38:01.705Z,95542.81
2022-11-10T09:38:58.375Z,95559.06
2022-11-10T09:39:55.874Z,95424.09
2022-11-10T09:41:11.336Z,95546.84
2022-11-10T09:42:28.116Z,95425.75
2022-11-10T09:43:42.391Z,95535.78
2022-11-10T09:44:52.042Z,95468.97
2022-11-10T09:45:54.817Z,95484.28
2022-11-10T09:47:42.269Z,95514.47
2022-11-10T09:48:45.715Z,95470.94
2022-11-10T09:49:56.620Z,95505.09
2022-11-10T09:51:00.738Z,95488.22
2022-11-10T09:51:59.720Z,95548.91
2022-11-10T09:52:58.977Z,95351.00
2022-11-10T09:54:21.056Z,95521.00
2022-11-10T09:55:37.637Z,95532.47
2022-11-10T09:56:36.851Z,95539.13
2022-11-10T09:57:33.857Z,95544.78
2022-11-10T09:58:39.637Z,95495.03
2022-11-10T09:59:36.914Z,95468.38
2022-11-10T10:00:35.709Z,95558.81
2022-11-10T10:01:59.566Z,95518.50
2022-11-10T10:03:04.125Z,95506.16
2022-11-10T10:04:07.239Z,95532.47
2022-11-10T10:05:30.218Z,95536.44
2022-11-10T10:06:33.935Z,95527.84
2022-11-10T10:07:52.194Z,95522.47
2022-11-10T10:08:51.771Z,95521.00
2022-11-10T10:10:17.662Z,95379.47
2022-11-10T10:11:30.628Z,95511.06
2022-11-10T10:12:58.352Z,95503.97
2022-11-10T10:13:58.038Z,95517.75
2022-11-10T10:14:57.336Z,95523.69
2022-11-10T10:15:56.839Z,95521.03
2022-11-10T10:17:01.105Z,95515.88
2022-11-10T10:18:19.300Z,95513.09
2022-11-10T10:19:28.317Z,95445.19
2022-11-10T10:20:46.277Z,95536.16
2022-11-10T10:21:45.716Z,95514.38
2022-11-10T10:22:59.254Z,95527.06
2022-11-10T10:24:10.400Z,95528.84
2022-11-10T10:25:19.035Z,95532.56
2022-11-10T10:26:20.030Z,95505.28
2022-11-10T10:27:23.668Z,95515.66
2022-11-10T10:28:23.737Z,95516.38
2022-11-10T10:29:29.941Z,95531.03
2022-11-10T10:30:30.192Z,95469.13
2022-11-10T10:31:36.068Z,95350.22
2022-11-10T10:32:32.838Z,95531.72
2022-11-10T10:33:29.639Z,95531.47
2022-11-10T10:34:30.239Z,95511.28
2022-11-10T10:35:28.799Z,95213.53
2022-11-10T10:36:29.796Z,95516.13
2022-11-10T10:37:43.464Z,95530.31
2022-11-10T10:38:41.199Z,95512.13
2022-11-10T10:39:46.366Z,95343.56
2022-11-10T10:40:48.782Z,95462.13
2022-11-10T10:41:46.481Z,95413.06
2022-11-10T10:42:43.217Z,95521.72
2022-11-10T10:43:46.486Z,95514.25
2022-11-10T10:45:21.467Z,95468.81
2022-11-10T10:46:27.661Z,95506.63
2022-11-10T10:47:37.785Z,95450.00
2022-11-10T10:48:34.561Z,95516.66
2022-11-10T10:49:36.809Z,95384.47
2022-11-10T10:50:42.948Z,95326.94
2022-11-10T10:51:39.907Z,95514.28
2022-11-10T10:52:36.654Z,95521.94
2022-11-10T10:53:33.356Z,95516.13
2022-11-10T10:54:36.140Z,95505.75
2022-11-10T10:55:34.907Z,95431.22
2022-11-10T10:56:33.369Z,95315.31
2022-11-10T10:57:30.168Z,95488.47
2022-11-10T10:58:29.567Z,95484.50
2022-11-10T10:59:27.058Z,95480.47
2022-11-10T11:00:24.282Z,95488.97
2022-11-10T11:01:37.625Z,95451.50
2022-11-10T11:02:34.424Z,95505.91
2022-11-10T11:03:45.851Z,95447.75
2022-11-10T11:04:42.697Z,95503.31
2022-11-10T11:05:39.484Z,95497.88
2022-11-10T11:06:36.477Z,95481.91
2022-11-10T11:07:33.348Z,95454.25
2022-11-10T11:08:30.231Z,95504.13
2022-11-10T11:09:30.170Z,95460.00
2022-11-10T11:10:35.603Z,95458.34
2022-11-10T11:11:40.643Z,95409.31
2022-11-10T11:12:37.352Z,95458.09
2022-11-10T11:13:34.571Z,95487.78
2022-11-10T11:14:32.806Z,95492.50
2022-11-10T11:15:30.468Z,95459.56
2022-11-10T11:16:27.171Z,95276.13
2022-11-10T11:17:23.874Z,95401.22
2022-11-10T11:18:29.038Z,95457.13
2022-11-10T11:19:33.966Z,95482.59
2022-11-10T11:21:16.003Z,95484.09
2022-11-10T11:22:41.744Z,95466.53
2022-11-10T11:23:55.522Z,95304.41
2022-11-10T11:25:20.389Z,95469.34
2022-11-10T11:26:27.698Z,95463.69
2022-11-10T11:27:42.175Z,95484.78
2022-11-10T11:29:21.457Z,95442.94
2022-11-10T11:30:19.491Z,95466.81
2022-11-10T11:32:01.913Z,95415.81
2022-11-10T11:33:13.064Z,95410.81
2022-11-10T11:34:31.177Z,95410.91
2022-11-10T11:35:37.665Z,95461.22
2022-11-10T11:37:05.319Z,95471.53
2022-11-10T11:38:24.440Z,95457.97